Mid Fortune — ZGCG8 — position and weather

sailwx.info

Track history (hours):
 
Tides and Currents Weather Stations Pressure Air Temp Water Temp Dewpoint Dewpoint Depression Visibility Wind Speed Wind Dir Waves Ship Positions

Mid Fortune

Last reported at 2015-Jul-02 18:26 UTC. Time now 2015-Jul-03 06:11 UTC.
Position N 35°59' W 005°31'.

Length 147 m; draft 9 m.

Type: Ship (hazmat cat B). MMSI: 319182000.

Date/timePositionNaut miles runAvg speedWind from/ knotsBaromVisibWave heightAir tempDewpointWater temp
2015-Jul-02 18:26N 35°59' W 005°31'8 9.0
2015-Jul-02 17:33N 36°03' W 005°23'3 2.8
2015-Jul-02 16:29N 36°06' W 005°25'0 0.0
2015-Jul-02 15:26N 36°06' W 005°25'0 0.0
2015-Jul-02 14:29N 36°06' W 005°25'0 0.1
2015-Jul-02 13:32N 36°06' W 005°25'2 2.2
2015-Jul-02 12:33N 36°05' W 005°22'9 8.9
2015-Jul-02 11:33N 36°05' W 005°11'10611.8
2015-Jul-02 02:32N 36°20' W 003°01'1312.9
2015-Jul-02 01:33N 36°22' W 002°45'1313.6
2015-Jul-02 00:33N 36°24' W 002°29'2713.7
2015-Jul-01 22:33N 36°29' W 001°55'1413.8
2015-Jul-01 21:32N 36°32' W 001°38'1613.7
2015-Jul-01 20:23N 36°36' W 001°19'1113.4
2015-Jul-01 19:33N 36°39' W 001°05'1313.3
2015-Jul-01 18:34N 36°41' W 000°49'1413.6
2015-Jul-01 17:33N 36°45' W 000°33'1413.5
2015-Jul-01 16:33N 36°48' W 000°16'1313.5
2015-Jul-01 15:33N 36°51' W 000°00'1413.6
2015-Jul-01 14:33N 36°54' E 000°16'1413.7
2015-Jul-01 13:33N 36°57' E 000°33'1413.7
2015-Jul-01 12:31N 37°01' E 000°50'1313.8
2015-Jul-01 11:33N 37°04' E 001°07'1414.1
2015-Jul-01 10:34N 37°07' E 001°24'1514.2
2015-Jul-01 09:29N 37°11' E 001°42'1313.7
2015-Jul-01 08:32N 37°14' E 001°58'1313.5
2015-Jul-01 07:33N 37°17' E 002°14'1313.5
2015-Jul-01 06:34N 37°20' E 002°31'1313.5
2015-Jul-01 05:33N 37°23' E 002°47'1313.4
2015-Jul-01 04:33N 37°26' E 003°04'3213.1
2015-Jul-01 02:08N 37°34' E 003°42'712.8
2015-Jul-01 01:33N 37°36' E 003°52'1312.9
2015-Jul-01 00:33N 37°39' E 004°08'1313.3
2015-Jun-30 23:33N 37°42' E 004°24'1413.6
2015-Jun-30 22:33N 37°45' E 004°40'1413.8
2015-Jun-30 21:33N 37°48' E 004°58'1413.6
2015-Jun-30 20:33N 37°51' E 005°14'1613.1
2015-Jun-30 19:22N 37°55' E 005°33'1012.6
2015-Jun-30 18:33N 37°57' E 005°46'1312.5
2015-Jun-30 17:32N 38°00' E 006°02'2613.2
2015-Jun-30 15:33N 38°00' E 006°35'1513.7
2015-Jun-30 14:30N 38°00' E 006°54'1813.6
2015-Jun-30 13:10N 37°57' E 007°16'2413.9
2015-Jun-30 11:28N 37°48' E 007°44'1314.1
2015-Jun-30 10:33N 37°44' E 007°59'1413.8
2015-Jun-30 09:33N 37°38' E 008°15'1413.5
2015-Jun-30 08:31N 37°38' E 008°33'1313.6
2015-Jun-30 07:33N 37°39' E 008°49'1313.2
2015-Jun-30 06:33N 37°39' E 009°06'1313.2
2015-Jun-30 05:33N 37°39' E 009°23'1313.0
2015-Jun-30 04:33N 37°39' E 009°39'4212.8
2015-Jun-30 01:16N 37°35' E 010°32'912.5
2015-Jun-30 00:33N 37°33' E 010°43'1212.3
2015-Jun-29 23:33N 37°30' E 010°58'1312.6
2015-Jun-29 22:33N 37°27' E 011°13'1313.2
2015-Jun-29 21:33N 37°20' E 011°27'1313.2
2015-Jun-29 20:33N 37°13' E 011°42'1313.4
2015-Jun-29 19:33N 37°07' E 011°56'1313.3
2015-Jun-29 18:33N 36°60' E 012°10'1313.2
2015-Jun-29 17:33N 36°53' E 012°25'1313.1
2015-Jun-29 16:33N 36°47' E 012°39'1313.4
2015-Jun-29 15:33N 36°40' E 012°53'1313.5
2015-Jun-29 14:33N 36°33' E 013°08'1413.5
2015-Jun-29 13:33N 36°29' E 013°24'1313.5
2015-Jun-29 12:33N 36°26' E 013°40'1313.4
2015-Jun-29 11:33N 36°22' E 013°56'1313.3
2015-Jun-29 10:33N 36°19' E 014°12'1313.1
2015-Jun-29 09:33N 36°15' E 014°28'1312.9
2015-Jun-29 08:33N 36°12' E 014°43'5513.6
2015-Jun-29 04:33N 35°58' E 015°48'62713.1
2015-Jun-27 04:33N 33°21' E 028°06'1313.4
2015-Jun-27 03:33N 33°18' E 028°22'1513.5
2015-Jun-27 02:28N 33°14' E 028°39'1313.5
2015-Jun-27 01:33N 33°09' E 028°52'1413.6
2015-Jun-27 00:31N 33°03' E 029°07'6613.3
2015-Jun-26 19:33N 32°33' E 030°17'1513.2
2015-Jun-26 18:27N 32°27' E 030°33'1613.1
2015-Jun-26 17:15N 32°20' E 030°49'913.1
2015-Jun-26 16:32N 32°15' E 030°59'1212.6
2015-Jun-26 15:33N 32°10' E 031°12'1312.2
2015-Jun-26 14:29N 32°03' E 031°26'1111.9
2015-Jun-26 13:33N 31°58' E 031°37'  
Track history (hours):
 
Tides and Currents Weather Stations Pressure Air Temp Water Temp Dewpoint Dewpoint Depression Visibility Wind Speed Wind Dir Waves Ship Positions

Mid Fortune

Last reported at 2015-Jul-02 18:26 UTC. Time now 2015-Jul-03 06:11 UTC.
Position N 35°59' W 005°31'.

Length 147 m; draft 9 m.

Type: Ship (hazmat cat B). MMSI: 319182000.

Date/timePositionNaut miles runAvg speedWind from/ knotsBaromVisibWave heightAir tempDewpointWater temp
2015-Jul-02 18:26N 35°59' W 005°31'8 9.0
2015-Jul-02 17:33N 36°03' W 005°23'3 2.8
2015-Jul-02 16:29N 36°06' W 005°25'0 0.0
2015-Jul-02 15:26N 36°06' W 005°25'0 0.0
2015-Jul-02 14:29N 36°06' W 005°25'0 0.1
2015-Jul-02 13:32N 36°06' W 005°25'2 2.2
2015-Jul-02 12:33N 36°05' W 005°22'9 8.9
2015-Jul-02 11:33N 36°05' W 005°11'10611.8
2015-Jul-02 02:32N 36°20' W 003°01'1312.9
2015-Jul-02 01:33N 36°22' W 002°45'1313.6
2015-Jul-02 00:33N 36°24' W 002°29'2713.7
2015-Jul-01 22:33N 36°29' W 001°55'1413.8
2015-Jul-01 21:32N 36°32' W 001°38'1613.7
2015-Jul-01 20:23N 36°36' W 001°19'1113.4
2015-Jul-01 19:33N 36°39' W 001°05'1313.3
2015-Jul-01 18:34N 36°41' W 000°49'1413.6
2015-Jul-01 17:33N 36°45' W 000°33'1413.5
2015-Jul-01 16:33N 36°48' W 000°16'1313.5
2015-Jul-01 15:33N 36°51' W 000°00'1413.6
2015-Jul-01 14:33N 36°54' E 000°16'1413.7
2015-Jul-01 13:33N 36°57' E 000°33'1413.7
2015-Jul-01 12:31N 37°01' E 000°50'1313.8
2015-Jul-01 11:33N 37°04' E 001°07'1414.1
2015-Jul-01 10:34N 37°07' E 001°24'1514.2
2015-Jul-01 09:29N 37°11' E 001°42'1313.7
2015-Jul-01 08:32N 37°14' E 001°58'1313.5
2015-Jul-01 07:33N 37°17' E 002°14'1313.5
2015-Jul-01 06:34N 37°20' E 002°31'1313.5
2015-Jul-01 05:33N 37°23' E 002°47'1313.4
2015-Jul-01 04:33N 37°26' E 003°04'3213.1
2015-Jul-01 02:08N 37°34' E 003°42'712.8
2015-Jul-01 01:33N 37°36' E 003°52'1312.9
2015-Jul-01 00:33N 37°39' E 004°08'1313.3
2015-Jun-30 23:33N 37°42' E 004°24'1413.6
2015-Jun-30 22:33N 37°45' E 004°40'1413.8
2015-Jun-30 21:33N 37°48' E 004°58'1413.6
2015-Jun-30 20:33N 37°51' E 005°14'1613.1
2015-Jun-30 19:22N 37°55' E 005°33'1012.6
2015-Jun-30 18:33N 37°57' E 005°46'1312.5
2015-Jun-30 17:32N 38°00' E 006°02'2613.2
2015-Jun-30 15:33N 38°00' E 006°35'1513.7
2015-Jun-30 14:30N 38°00' E 006°54'1813.6
2015-Jun-30 13:10N 37°57' E 007°16'2413.9
2015-Jun-30 11:28N 37°48' E 007°44'1314.1
2015-Jun-30 10:33N 37°44' E 007°59'1413.8
2015-Jun-30 09:33N 37°38' E 008°15'1413.5
2015-Jun-30 08:31N 37°38' E 008°33'1313.6
2015-Jun-30 07:33N 37°39' E 008°49'1313.2
2015-Jun-30 06:33N 37°39' E 009°06'1313.2
2015-Jun-30 05:33N 37°39' E 009°23'1313.0
2015-Jun-30 04:33N 37°39' E 009°39'4212.8
2015-Jun-30 01:16N 37°35' E 010°32'912.5
2015-Jun-30 00:33N 37°33' E 010°43'1212.3
2015-Jun-29 23:33N 37°30' E 010°58'1312.6
2015-Jun-29 22:33N 37°27' E 011°13'1313.2
2015-Jun-29 21:33N 37°20' E 011°27'1313.2
2015-Jun-29 20:33N 37°13' E 011°42'1313.4
2015-Jun-29 19:33N 37°07' E 011°56'1313.3
2015-Jun-29 18:33N 36°60' E 012°10'1313.2
2015-Jun-29 17:33N 36°53' E 012°25'1313.1
2015-Jun-29 16:33N 36°47' E 012°39'1313.4
2015-Jun-29 15:33N 36°40' E 012°53'1313.5
2015-Jun-29 14:33N 36°33' E 013°08'1413.5
2015-Jun-29 13:33N 36°29' E 013°24'1313.5
2015-Jun-29 12:33N 36°26' E 013°40'1313.4
2015-Jun-29 11:33N 36°22' E 013°56'1313.3
2015-Jun-29 10:33N 36°19' E 014°12'1313.1
2015-Jun-29 09:33N 36°15' E 014°28'1312.9
2015-Jun-29 08:33N 36°12' E 014°43'5513.6
2015-Jun-29 04:33N 35°58' E 015°48'62713.1
2015-Jun-27 04:33N 33°21' E 028°06'1313.4
2015-Jun-27 03:33N 33°18' E 028°22'1513.5
2015-Jun-27 02:28N 33°14' E 028°39'1313.5
2015-Jun-27 01:33N 33°09' E 028°52'1413.6
2015-Jun-27 00:31N 33°03' E 029°07'6613.3
2015-Jun-26 19:33N 32°33' E 030°17'1513.2
2015-Jun-26 18:27N 32°27' E 030°33'1613.1
2015-Jun-26 17:15N 32°20' E 030°49'913.1
2015-Jun-26 16:32N 32°15' E 030°59'1212.6
2015-Jun-26 15:33N 32°10' E 031°12'1312.2
2015-Jun-26 14:29N 32°03' E 031°26'1111.9
2015-Jun-26 13:33N 31°58' E 031°37'  

Dump ship's entire track history